createdAt,value
2023-03-23T00:02:09.871Z,11.00
2023-03-23T00:04:36.699Z,11.00
2023-03-23T00:07:03.888Z,11.00
2023-03-23T00:09:30.931Z,11.00
2023-03-23T00:11:57.805Z,10.90
2023-03-23T00:14:25.040Z,10.80
2023-03-23T00:16:51.944Z,10.70
2023-03-23T00:19:19.254Z,10.60
2023-03-23T00:21:46.786Z,10.50
2023-03-23T00:24:19.479Z,10.50
2023-03-23T00:26:48.655Z,10.40
2023-03-23T00:29:18.600Z,10.40
2023-03-23T00:31:46.757Z,10.30
2023-03-23T00:34:16.806Z,10.20
2023-03-23T00:36:44.658Z,10.20
2023-03-23T00:39:11.679Z,10.10
2023-03-23T00:41:38.912Z,10.10
2023-03-23T00:44:06.029Z,10.10
2023-03-23T00:46:32.905Z,10.00
2023-03-23T00:48:59.756Z,10.00
2023-03-23T00:51:27.199Z,10.00
2023-03-23T00:53:54.127Z,9.90
2023-03-23T00:56:20.976Z,9.90
2023-03-23T00:58:48.110Z,9.90
2023-03-23T01:01:16.063Z,9.90
2023-03-23T01:03:42.971Z,9.80
2023-03-23T01:06:11.804Z,9.80
2023-03-23T01:08:38.692Z,9.80
2023-03-23T01:11:07.740Z,9.70
2023-03-23T01:13:34.849Z,9.70
2023-03-23T01:16:03.028Z,9.70
2023-03-23T01:18:33.826Z,9.70
2023-03-23T01:21:09.248Z,9.70
2023-03-23T01:23:36.306Z,9.60
2023-03-23T01:26:08.581Z,9.70
2023-03-23T01:28:36.578Z,9.60
2023-03-23T01:31:14.306Z,9.60
2023-03-23T01:33:43.052Z,9.60
2023-03-23T01:36:14.372Z,9.60
2023-03-23T01:38:46.371Z,9.60
2023-03-23T01:41:14.875Z,9.50
2023-03-23T01:44:07.129Z,9.50
2023-03-23T01:46:36.264Z,9.50
2023-03-23T01:49:09.203Z,9.50
2023-03-23T01:51:42.152Z,9.50
2023-03-23T01:54:13.159Z,9.50
2023-03-23T01:56:46.657Z,9.50
2023-03-23T01:59:14.584Z,9.50
2023-03-23T02:01:42.143Z,9.50
2023-03-23T02:04:09.049Z,9.50
2023-03-23T02:06:35.982Z,9.50
2023-03-23T02:09:10.552Z,9.50
2023-03-23T02:11:37.804Z,9.50
2023-03-23T02:14:04.776Z,9.40
2023-03-23T02:16:37.676Z,9.40
2023-03-23T02:19:12.034Z,9.40
2023-03-23T02:21:57.816Z,9.40
2023-03-23T02:24:30.425Z,9.40
2023-03-23T02:27:09.381Z,9.40
2023-03-23T02:29:51.732Z,9.40
2023-03-23T02:32:43.474Z,9.50
2023-03-23T02:35:38.801Z,9.50
2023-03-23T02:38:28.880Z,9.40
2023-03-23T02:40:57.724Z,9.40
2023-03-23T02:43:28.724Z,9.50
2023-03-23T02:46:05.366Z,9.50
2023-03-23T02:48:34.328Z,9.50
2023-03-23T02:51:02.923Z,9.40
2023-03-23T02:53:31.453Z,9.40
2023-03-23T02:55:59.537Z,9.40
2023-03-23T02:58:26.760Z,9.50
2023-03-23T03:00:55.518Z,9.40
2023-03-23T03:03:26.037Z,9.50
2023-03-23T03:06:02.081Z,9.50
2023-03-23T03:08:56.101Z,9.40
2023-03-23T03:11:23.367Z,9.50
2023-03-23T03:14:07.260Z,9.40
2023-03-23T03:16:43.397Z,9.40
2023-03-23T03:19:35.046Z,9.40
2023-03-23T03:22:02.209Z,9.50
2023-03-23T03:24:30.960Z,9.40
2023-03-23T03:27:01.349Z,9.40
2023-03-23T03:29:35.772Z,9.40
2023-03-23T03:32:05.513Z,9.40
2023-03-23T03:34:32.659Z,9.40
2023-03-23T03:37:00.744Z,9.50
2023-03-23T03:39:28.507Z,9.40
2023-03-23T03:41:56.413Z,9.40
2023-03-23T03:44:23.441Z,9.40
2023-03-23T03:46:50.341Z,9.40
2023-03-23T03:49:17.215Z,9.40
2023-03-23T03:51:44.399Z,9.40
2023-03-23T03:54:11.363Z,9.40
2023-03-23T03:56:39.197Z,9.40
2023-03-23T03:59:21.599Z,9.40
2023-03-23T04:01:50.120Z,9.50
2023-03-23T04:04:17.221Z,9.50
2023-03-23T04:06:44.043Z,9.50
2023-03-23T04:09:11.314Z,9.50
2023-03-23T04:11:38.206Z,9.50
2023-03-23T04:14:05.411Z,9.50
2023-03-23T04:16:32.263Z,9.50
2023-03-23T04:18:59.127Z,9.50
2023-03-23T04:21:25.966Z,9.50
2023-03-23T04:23:53.190Z,9.50
2023-03-23T04:26:20.130Z,9.40
2023-03-23T04:28:48.370Z,9.50
2023-03-23T04:31:15.225Z,9.50
2023-03-23T04:33:59.752Z,9.50
2023-03-23T04:36:55.981Z,9.50
2023-03-23T04:39:14.568Z,9.50
2023-03-23T04:41:41.684Z,9.50
2023-03-23T04:44:08.663Z,9.50
2023-03-23T04:46:35.631Z,9.50
2023-03-23T04:49:02.529Z,9.60
2023-03-23T04:51:30.342Z,9.50
2023-03-23T04:53:57.207Z,9.50
2023-03-23T04:56:24.063Z,9.60
2023-03-23T04:58:50.921Z,9.60
2023-03-23T05:01:17.761Z,9.60
2023-03-23T05:03:45.604Z,9.60
2023-03-23T05:06:12.516Z,9.60
2023-03-23T05:08:39.370Z,9.60
2023-03-23T05:11:07.115Z,9.60
2023-03-23T05:13:34.372Z,9.60
2023-03-23T05:16:05.719Z,9.60
2023-03-23T05:18:32.695Z,9.60
2023-03-23T05:21:03.852Z,9.60
2023-03-23T05:23:30.962Z,9.60
2023-03-23T05:25:59.491Z,9.60
2023-03-23T05:28:26.399Z,9.60
2023-03-23T05:30:53.463Z,9.60
2023-03-23T05:33:21.084Z,9.70
2023-03-23T05:35:48.633Z,9.70
2023-03-23T05:38:16.742Z,9.60
2023-03-23T05:40:43.661Z,9.70
2023-03-23T05:43:11.314Z,9.60
2023-03-23T05:45:38.174Z,9.70
2023-03-23T05:48:05.206Z,9.70
2023-03-23T05:50:32.053Z,9.70
2023-03-23T05:52:58.889Z,9.70
2023-03-23T05:55:25.767Z,9.70
2023-03-23T05:57:52.599Z,9.70
2023-03-23T06:00:19.824Z,9.70
2023-03-23T06:02:48.784Z,9.70
2023-03-23T06:05:16.568Z,9.80
2023-03-23T06:07:44.029Z,9.80
2023-03-23T06:10:11.168Z,9.70
2023-03-23T06:12:39.964Z,9.80
2023-03-23T06:15:08.637Z,9.80
2023-03-23T06:17:36.283Z,9.80
2023-03-23T06:20:05.126Z,9.80
2023-03-23T06:22:32.011Z,9.80
2023-03-23T06:24:58.838Z,9.80
2023-03-23T06:27:25.766Z,9.80
2023-03-23T06:29:52.648Z,9.80
2023-03-23T06:32:19.979Z,9.80
2023-03-23T06:34:46.849Z,9.80
2023-03-23T06:37:13.683Z,9.80
2023-03-23T06:39:40.548Z,9.80
2023-03-23T06:42:10.783Z,9.80
2023-03-23T06:44:37.675Z,9.80
2023-03-23T06:47:05.464Z,9.80
2023-03-23T06:49:32.383Z,9.90
2023-03-23T06:51:59.261Z,9.90
2023-03-23T06:54:26.156Z,9.80
2023-03-23T06:56:53.015Z,9.90
2023-03-23T06:59:20.222Z,9.90
2023-03-23T07:01:47.108Z,9.90
2023-03-23T07:04:14.251Z,9.90
2023-03-23T07:06:41.202Z,9.90
2023-03-23T07:09:08.028Z,10.00
2023-03-23T07:11:34.887Z,10.00
2023-03-23T07:14:01.726Z,10.10
2023-03-23T07:16:28.590Z,10.00
2023-03-23T07:18:55.504Z,10.10
2023-03-23T07:21:22.355Z,10.10
2023-03-23T07:23:49.231Z,10.10
2023-03-23T07:26:16.164Z,10.10
2023-03-23T07:28:43.284Z,10.10
2023-03-23T07:31:10.293Z,10.10
2023-03-23T07:33:37.169Z,10.20
2023-03-23T07:36:04.345Z,10.30
2023-03-23T07:38:31.259Z,10.30
2023-03-23T07:40:58.186Z,10.40
2023-03-23T07:43:25.135Z,10.40
2023-03-23T07:45:52.579Z,10.50
2023-03-23T07:48:21.494Z,10.50
2023-03-23T07:50:48.696Z,10.50
2023-03-23T07:53:17.041Z,10.60
2023-03-23T07:55:44.080Z,10.60
2023-03-23T07:58:11.156Z,10.60
2023-03-23T08:00:38.814Z,10.70
2023-03-23T08:03:06.901Z,10.70
2023-03-23T08:05:33.855Z,10.80
2023-03-23T08:08:00.721Z,11.00
2023-03-23T08:10:27.606Z,11.10
2023-03-23T08:12:56.772Z,11.20
2023-03-23T08:15:24.658Z,11.30
2023-03-23T08:17:51.956Z,11.20
2023-03-23T08:20:19.270Z,11.20
2023-03-23T08:22:53.520Z,11.20
2023-03-23T08:25:21.205Z,11.20
2023-03-23T08:27:48.625Z,11.30
2023-03-23T08:30:18.343Z,12.50
2023-03-23T08:32:45.384Z,12.10
2023-03-23T08:35:12.956Z,12.00
2023-03-23T08:37:40.075Z,12.00
2023-03-23T08:40:07.926Z,11.90
2023-03-23T08:42:34.927Z,11.80
2023-03-23T08:45:01.845Z,11.70
2023-03-23T08:47:28.711Z,11.60
2023-03-23T08:49:55.544Z,11.60
2023-03-23T08:52:22.433Z,11.60
2023-03-23T08:54:49.363Z,11.50
2023-03-23T08:57:16.222Z,11.40
2023-03-23T08:59:43.683Z,11.20
2023-03-23T09:02:12.333Z,11.20
2023-03-23T09:04:40.368Z,11.20
2023-03-23T09:07:07.255Z,11.70
2023-03-23T09:09:34.098Z,13.00
2023-03-23T09:12:01.339Z,12.40
2023-03-23T09:14:28.279Z,12.10
2023-03-23T09:16:55.155Z,12.10
2023-03-23T09:19:22.031Z,12.00
2023-03-23T09:21:48.886Z,12.00
2023-03-23T09:24:15.938Z,12.10
2023-03-23T09:26:42.822Z,12.50
2023-03-23T09:29:09.714Z,12.60
2023-03-23T09:31:36.574Z,12.60
2023-03-23T09:34:04.179Z,12.70
2023-03-23T09:36:31.230Z,13.00
2023-03-23T09:38:58.200Z,12.70
2023-03-23T09:42:17.655Z,12.90
2023-03-23T09:44:50.264Z,13.00
2023-03-23T09:47:53.192Z,12.80
2023-03-23T09:50:26.521Z,12.80
2023-03-23T09:53:18.939Z,12.70
2023-03-23T09:55:46.554Z,12.80
2023-03-23T09:58:19.433Z,12.70
2023-03-23T10:01:09.328Z,12.60
2023-03-23T10:03:42.388Z,12.80
2023-03-23T10:06:12.141Z,13.10
2023-03-23T10:08:55.020Z,13.10
2023-03-23T10:11:41.362Z,13.10
2023-03-23T10:14:18.649Z,13.30
2023-03-23T10:16:57.413Z,13.20
2023-03-23T10:20:01.679Z,13.30
2023-03-23T10:22:37.844Z,13.20
2023-03-23T10:25:13.581Z,13.20
2023-03-23T10:27:58.162Z,13.10
2023-03-23T10:30:31.026Z,12.90
2023-03-23T10:33:05.449Z,12.90
2023-03-23T10:35:49.777Z,12.90
2023-03-23T10:38:23.392Z,12.70
2023-03-23T10:41:19.707Z,12.80
2023-03-23T10:43:47.420Z,12.60
2023-03-23T10:46:48.938Z,12.50
2023-03-23T10:49:28.025Z,12.50
2023-03-23T10:52:18.010Z,12.50
2023-03-23T10:54:53.419Z,12.80
2023-03-23T10:57:34.678Z,13.00
2023-03-23T11:00:09.693Z,13.30
2023-03-23T11:06:06.071Z,13.80
2023-03-23T11:09:22.610Z,14.30
2023-03-23T11:12:01.938Z,15.10
2023-03-23T11:14:33.113Z,15.00
2023-03-23T11:17:13.864Z,14.90
2023-03-23T11:19:42.601Z,14.70
2023-03-23T11:22:18.040Z,14.50
2023-03-23T11:24:48.115Z,14.30
2023-03-23T11:27:16.523Z,14.30
2023-03-23T11:29:58.627Z,14.00
2023-03-23T11:32:29.154Z,14.10
2023-03-23T11:35:13.770Z,14.10
2023-03-23T11:38:04.502Z,14.00
2023-03-23T11:40:32.715Z,14.10
2023-03-23T11:43:14.146Z,14.20
2023-03-23T11:45:48.836Z,14.10
2023-03-23T11:48:41.236Z,13.90
2023-03-23T11:51:48.615Z,13.90
2023-03-23T11:54:27.275Z,13.60
2023-03-23T11:56:54.201Z,13.60
2023-03-23T11:59:36.846Z,13.60
2023-03-23T12:02:35.190Z,13.30
2023-03-23T12:05:17.389Z,13.20
2023-03-23T12:07:50.572Z,13.10
2023-03-23T12:10:40.559Z,13.10
2023-03-23T12:14:02.520Z,13.10
2023-03-23T12:16:34.216Z,13.20
2023-03-23T12:19:56.033Z,13.10
2023-03-23T12:22:48.645Z,12.90
2023-03-23T12:25:31.108Z,13.10
2023-03-23T12:28:16.322Z,13.10
2023-03-23T12:30:46.997Z,13.10
2023-03-23T12:33:19.584Z,13.20
2023-03-23T12:36:01.349Z,13.30
2023-03-23T12:38:40.360Z,13.60
2023-03-23T12:41:10.095Z,13.60
2023-03-23T12:43:48.856Z,13.80
2023-03-23T12:46:36.345Z,13.50
2023-03-23T12:49:25.808Z,13.50
2023-03-23T12:52:02.797Z,13.60
2023-03-23T12:54:54.558Z,13.30
2023-03-23T12:57:52.234Z,13.10
2023-03-23T13:00:51.725Z,12.90
2023-03-23T13:03:49.614Z,12.80
2023-03-23T13:06:25.897Z,12.80
2023-03-23T13:09:11.710Z,12.90
2023-03-23T13:11:39.964Z,12.90
2023-03-23T13:14:34.279Z,13.00
2023-03-23T13:17:13.168Z,13.00
2023-03-23T13:20:17.124Z,13.10
2023-03-23T13:23:14.863Z,13.20
2023-03-23T13:26:02.076Z,13.10
2023-03-23T13:28:31.769Z,13.00
2023-03-23T13:31:03.504Z,12.90
2023-03-23T13:33:35.397Z,12.70
2023-03-23T13:36:18.876Z,12.80
2023-03-23T13:38:49.586Z,12.80
2023-03-23T13:41:19.906Z,12.80
2023-03-23T13:43:46.984Z,12.90
2023-03-23T13:46:20.055Z,12.60
2023-03-23T13:48:49.477Z,12.80
2023-03-23T13:51:47.754Z,12.90
2023-03-23T13:54:20.393Z,12.70
2023-03-23T13:56:56.639Z,12.70
2023-03-23T13:59:35.182Z,12.40
2023-03-23T14:02:33.095Z,12.60
2023-03-23T14:05:31.602Z,12.60
2023-03-23T14:07:59.820Z,12.60
2023-03-23T14:10:37.514Z,12.50
2023-03-23T14:13:06.644Z,13.00
2023-03-23T14:15:45.568Z,13.70
2023-03-23T14:18:16.217Z,14.20
2023-03-23T14:20:46.696Z,15.10
2023-03-23T14:23:17.733Z,15.00
2023-03-23T14:25:45.495Z,15.10
2023-03-23T14:28:20.800Z,15.30
2023-03-23T14:30:48.209Z,14.90
2023-03-23T14:33:15.245Z,14.90
2023-03-23T14:35:44.425Z,15.30
2023-03-23T14:38:20.969Z,15.20
2023-03-23T14:40:49.019Z,14.70
2023-03-23T14:43:21.003Z,14.70
2023-03-23T14:45:54.906Z,14.40
2023-03-23T14:48:22.611Z,14.20
2023-03-23T14:50:57.622Z,14.50
2023-03-23T14:53:30.206Z,14.50
2023-03-23T14:56:00.337Z,14.70
2023-03-23T14:58:27.171Z,14.40
2023-03-23T15:01:11.488Z,14.50
2023-03-23T15:03:44.521Z,15.00
2023-03-23T15:06:18.614Z,15.50
2023-03-23T15:08:48.445Z,14.60
2023-03-23T15:11:18.101Z,15.00
2023-03-23T15:13:51.543Z,15.10
2023-03-23T15:16:28.347Z,14.50
2023-03-23T15:19:07.051Z,14.50
2023-03-23T15:22:07.369Z,14.20
2023-03-23T15:24:38.785Z,13.60
2023-03-23T15:27:14.485Z,14.00
2023-03-23T15:29:53.061Z,14.50
2023-03-23T15:32:29.542Z,14.90
2023-03-23T15:34:58.398Z,14.20
2023-03-23T15:37:46.521Z,14.20
2023-03-23T15:40:22.205Z,14.10
2023-03-23T15:42:50.733Z,13.90
2023-03-23T15:45:28.207Z,13.90
2023-03-23T15:47:58.539Z,13.60
2023-03-23T15:50:28.446Z,13.60
2023-03-23T15:52:55.644Z,13.20
2023-03-23T15:55:36.879Z,12.70
2023-03-23T15:58:11.892Z,11.70
2023-03-23T16:00:39.984Z,10.90
2023-03-23T16:03:09.750Z,10.50
2023-03-23T16:05:36.806Z,10.40
2023-03-23T16:08:03.807Z,10.30
2023-03-23T16:10:31.139Z,10.30
2023-03-23T16:12:58.020Z,10.40
2023-03-23T16:15:24.896Z,10.30
2023-03-23T16:17:51.778Z,10.30
2023-03-23T16:20:23.139Z,10.20
2023-03-23T16:22:51.723Z,10.40
2023-03-23T16:25:18.967Z,10.40
2023-03-23T16:27:46.447Z,10.40
2023-03-23T16:30:22.730Z,10.40
2023-03-23T16:32:49.698Z,10.50
2023-03-23T16:35:18.930Z,10.60
2023-03-23T16:37:47.808Z,10.50
2023-03-23T16:40:16.349Z,10.50
2023-03-23T16:42:43.668Z,10.50
2023-03-23T16:45:11.374Z,10.50
2023-03-23T16:47:38.748Z,10.50
2023-03-23T16:50:08.178Z,10.50
2023-03-23T16:52:35.205Z,10.60
2023-03-23T16:55:15.054Z,10.50
2023-03-23T16:57:43.351Z,10.50
2023-03-23T17:00:19.858Z,10.60
2023-03-23T17:02:48.363Z,10.70
2023-03-23T17:05:15.962Z,10.60
2023-03-23T17:07:42.837Z,10.70
2023-03-23T17:10:11.294Z,10.70
2023-03-23T17:12:38.711Z,10.60
2023-03-23T17:15:06.772Z,10.60
2023-03-23T17:17:36.774Z,10.60
2023-03-23T17:20:05.009Z,10.50
2023-03-23T17:22:31.995Z,10.50
2023-03-23T17:24:58.860Z,10.40
2023-03-23T17:27:26.174Z,10.30
2023-03-23T17:29:53.082Z,10.20
2023-03-23T17:32:19.950Z,10.10
2023-03-23T17:34:46.770Z,10.00
2023-03-23T17:37:13.653Z,10.00
2023-03-23T17:39:42.693Z,9.90
2023-03-23T17:42:10.828Z,9.90
2023-03-23T17:44:37.967Z,9.80
2023-03-23T17:47:05.025Z,9.80
2023-03-23T17:49:32.224Z,9.80
2023-03-23T17:52:00.148Z,9.80
2023-03-23T17:54:27.918Z,9.70
2023-03-23T17:56:54.984Z,9.70
2023-03-23T17:59:21.857Z,9.60
2023-03-23T18:01:48.843Z,9.60
2023-03-23T18:04:16.511Z,9.50
2023-03-23T18:06:43.496Z,9.60
2023-03-23T18:09:10.437Z,9.50
2023-03-23T18:11:37.303Z,9.50
2023-03-23T18:14:04.410Z,9.40
2023-03-23T18:16:31.328Z,9.40
2023-03-23T18:18:58.422Z,9.50
2023-03-23T18:21:25.292Z,9.50
2023-03-23T18:23:59.348Z,9.50
2023-03-23T18:26:27.859Z,9.50
2023-03-23T18:28:55.116Z,9.50
2023-03-23T18:31:22.454Z,9.50
2023-03-23T18:33:51.149Z,9.50
2023-03-23T18:36:20.953Z,9.50
2023-03-23T18:38:48.887Z,9.40
2023-03-23T18:41:16.408Z,9.50
2023-03-23T18:43:44.441Z,9.50
2023-03-23T18:46:11.345Z,9.40
2023-03-23T18:48:38.250Z,9.40
2023-03-23T18:51:05.582Z,9.40
2023-03-23T18:53:32.603Z,9.40
2023-03-23T18:56:08.371Z,9.40
2023-03-23T18:58:35.588Z,9.30
2023-03-23T19:01:05.005Z,9.20
2023-03-23T19:03:32.049Z,9.20
2023-03-23T19:06:00.394Z,9.20
2023-03-23T19:08:28.699Z,9.20
2023-03-23T19:11:01.008Z,9.10
2023-03-23T19:13:32.544Z,9.10
2023-03-23T19:15:59.823Z,9.00
2023-03-23T19:18:26.762Z,9.00
2023-03-23T19:21:09.527Z,9.00
2023-03-23T19:23:39.796Z,9.00
2023-03-23T19:26:06.707Z,9.10
2023-03-23T19:29:09.679Z,9.20
2023-03-23T19:31:20.717Z,9.10
2023-03-23T19:33:47.591Z,9.10
2023-03-23T19:36:14.561Z,9.10
2023-03-23T19:38:41.459Z,9.10
2023-03-23T19:41:08.621Z,9.20
2023-03-23T19:43:36.441Z,9.20
2023-03-23T19:46:04.839Z,9.10
2023-03-23T19:48:31.724Z,9.30
2023-03-23T19:50:58.676Z,9.20
2023-03-23T19:53:26.659Z,9.20
2023-03-23T19:55:53.712Z,9.20
2023-03-23T19:58:20.586Z,9.20
2023-03-23T20:00:48.672Z,9.10
2023-03-23T20:03:16.690Z,9.10
2023-03-23T20:05:44.278Z,9.10
2023-03-23T20:08:11.753Z,9.10
2023-03-23T20:10:39.817Z,9.10
2023-03-23T20:13:07.953Z,9.10
2023-03-23T20:15:34.992Z,9.10
2023-03-23T20:18:01.875Z,9.20
2023-03-23T20:20:29.658Z,9.10
2023-03-23T20:22:57.969Z,9.10
2023-03-23T20:25:26.181Z,9.20
2023-03-23T20:27:55.073Z,9.20
2023-03-23T20:30:22.092Z,9.20
2023-03-23T20:32:48.992Z,9.10
2023-03-23T20:35:15.918Z,9.20
2023-03-23T20:37:42.821Z,9.10
2023-03-23T20:40:13.830Z,9.20
2023-03-23T20:42:41.099Z,9.20
2023-03-23T20:45:07.968Z,9.20
2023-03-23T20:47:34.878Z,9.20
2023-03-23T20:50:01.961Z,9.20
2023-03-23T20:52:29.148Z,9.10
2023-03-23T20:54:56.338Z,9.10
2023-03-23T20:57:23.348Z,9.10
2023-03-23T20:59:51.800Z,9.10
2023-03-23T21:02:20.149Z,9.10
2023-03-23T21:04:47.837Z,9.10
2023-03-23T21:07:15.670Z,9.20
2023-03-23T21:09:43.205Z,9.10
2023-03-23T21:12:10.853Z,9.20
2023-03-23T21:14:39.151Z,9.10
2023-03-23T21:17:07.257Z,9.00
2023-03-23T21:19:35.119Z,9.10
2023-03-23T21:22:02.296Z,9.20
2023-03-23T21:24:31.163Z,9.10
2023-03-23T21:27:00.817Z,9.00
2023-03-23T21:29:28.540Z,9.10
2023-03-23T21:32:07.844Z,9.00
2023-03-23T21:34:35.814Z,9.10
2023-03-23T21:37:02.680Z,9.00
2023-03-23T21:39:29.597Z,9.00
2023-03-23T21:41:56.535Z,9.10
2023-03-23T21:44:23.487Z,9.00
2023-03-23T21:46:50.340Z,9.00
2023-03-23T21:49:17.177Z,9.10
2023-03-23T21:51:44.064Z,9.10
2023-03-23T21:54:11.799Z,9.10
2023-03-23T21:56:39.158Z,9.20
2023-03-23T21:59:06.392Z,9.20
2023-03-23T22:01:33.813Z,9.20
2023-03-23T22:04:00.727Z,9.20
2023-03-23T22:06:27.808Z,9.20
2023-03-23T22:08:55.433Z,9.30
2023-03-23T22:11:25.712Z,9.30
2023-03-23T22:13:53.959Z,9.20
2023-03-23T22:16:21.980Z,9.30
2023-03-23T22:18:50.361Z,9.30
2023-03-23T22:21:18.801Z,9.30
2023-03-23T22:23:46.285Z,9.40
2023-03-23T22:26:13.934Z,9.40
2023-03-23T22:28:41.409Z,9.30
2023-03-23T22:31:14.057Z,9.40
2023-03-23T22:33:41.041Z,9.40
2023-03-23T22:36:08.777Z,9.40
2023-03-23T22:38:37.593Z,9.30
2023-03-23T22:41:05.950Z,9.30
2023-03-23T22:43:34.697Z,9.40
2023-03-23T22:46:01.728Z,9.50
2023-03-23T22:48:29.403Z,9.40
2023-03-23T22:50:56.396Z,9.40
2023-03-23T22:53:23.261Z,9.40
2023-03-23T22:55:52.817Z,9.40
2023-03-23T22:58:19.949Z,9.40
2023-03-23T23:00:49.820Z,9.50
2023-03-23T23:03:17.585Z,9.40
2023-03-23T23:05:50.852Z,9.40
2023-03-23T23:08:18.439Z,9.40
2023-03-23T23:10:47.725Z,9.40
2023-03-23T23:13:15.522Z,9.40
2023-03-23T23:15:46.011Z,9.50
2023-03-23T23:18:13.958Z,9.40
2023-03-23T23:20:40.859Z,9.40
2023-03-23T23:23:08.388Z,9.50
2023-03-23T23:25:35.757Z,9.40
2023-03-23T23:28:04.749Z,9.40
2023-03-23T23:30:31.917Z,9.50
2023-03-23T23:32:59.028Z,9.50
2023-03-23T23:35:26.817Z,9.40
2023-03-23T23:37:54.175Z,9.50
2023-03-23T23:40:21.089Z,9.40
2023-03-23T23:42:50.949Z,9.50
2023-03-23T23:45:18.689Z,9.50
2023-03-23T23:47:46.569Z,9.50
2023-03-23T23:50:15.031Z,9.50
2023-03-23T23:52:42.757Z,9.50
2023-03-23T23:55:11.005Z,9.50
2023-03-23T23:57:38.157Z,9.50
